Time;durP1;ratioP1;P1;durP2;ratioP2;P2;SDS_P1;SDS_P2;PMS_P1;PMS_P2;Temp;Humidity;BMP_temperature;BMP_pressure;BME280_temperature;BME280_humidity;BME280_pressure;Samples;Min_cycle;Max_cycle;Signal;HPM_P1;HPM_P2
2022/02/11 00:01:55;;;;;;;14.97;4.07;;;4.70;99.90;;;;;;5176727;23;20150;-92
2022/02/11 00:06:21;;;;;;;8.87;3.60;;;4.50;99.90;;;;;;5200970;22;20219;-93
2022/02/11 00:08:22;;;;;;;10.60;3.97;;;4.40;99.90;;;;;;5201425;22;20154;-93
2022/02/11 00:10:25;;;;;;;15.07;3.80;;;4.30;99.90;;;;;;5175397;23;20154;-93
2022/02/11 00:12:27;;;;;;;12.43;3.80;;;4.30;99.90;;;;;;5174630;22;20150;-92
2022/02/11 00:14:31;;;;;;;10.23;3.50;;;4.20;99.90;;;;;;5202004;22;20528;-93
2022/02/11 00:16:34;;;;;;;10.70;3.37;;;4.30;99.90;;;;;;5202016;22;20652;-93
2022/02/11 00:18:35;;;;;;;11.47;4.00;;;4.20;99.90;;;;;;5199412;22;20146;-93
2022/02/11 00:20:37;;;;;;;10.87;3.73;;;4.10;99.90;;;;;;5199749;22;20146;-92
2022/02/11 00:22:41;;;;;;;10.33;3.47;;;4.20;99.90;;;;;;5200147;22;20146;-93
2022/02/11 00:24:42;;;;;;;10.40;3.17;;;4.20;99.90;;;;;;5176268;22;20157;-93
2022/02/11 00:26:49;;;;;;;11.03;3.43;;;4.20;99.90;;;;;;5198680;22;20210;-94
2022/02/11 00:33:31;;;;;;;17.57;3.73;;;4.30;99.90;;;;;;5229955;22;20166;-93
2022/02/11 00:35:48;;;;;;;14.90;3.27;;;4.30;99.90;;;;;;5204046;22;20146;-94
2022/02/11 00:37:51;;;;;;;16.97;2.93;;;4.40;99.90;;;;;;5205471;22;20200;-93
2022/02/11 00:40:12;;;;;;;13.10;3.17;;;4.50;99.90;;;;;;5183762;22;20219;-93
2022/02/11 01:02:47;;;;;;;20.23;2.90;;;4.00;99.90;;;;;;5236819;22;20129;-92
2022/02/11 01:04:48;;;;;;;12.20;2.60;;;4.00;99.90;;;;;;5211170;22;20170;-93
2022/02/11 01:06:52;;;;;;;11.93;3.17;;;4.00;99.90;;;;;;5210326;22;20222;-93
2022/02/11 01:08:53;;;;;;;19.73;2.93;;;3.90;99.90;;;;;;5184261;23;20143;-94
2022/02/11 01:10:59;;;;;;;11.60;2.90;;;3.90;99.90;;;;;;5209148;22;20150;-94
2022/02/11 01:13:00;;;;;;;19.80;3.27;;;3.90;99.90;;;;;;5202612;22;20245;-93
2022/02/11 01:15:04;;;;;;;13.30;2.97;;;4.00;99.90;;;;;;5209402;22;20176;-92
2022/02/11 01:17:20;;;;;;;10.90;2.97;;;3.90;99.90;;;;;;5237867;22;20189;-93
2022/02/11 01:21:37;;;;;;;11.80;2.63;;;3.90;99.90;;;;;;5210655;22;20207;-93
2022/02/11 01:26:08;;;;;;;15.50;3.00;;;4.00;99.90;;;;;;5212783;22;20154;-93
2022/02/11 01:33:37;;;;;;;10.27;2.70;;;3.90;99.90;;;;;;5140823;22;20264;-92
2022/02/11 01:46:32;;;;;;;10.43;2.33;;;3.90;99.90;;;;;;5199727;22;20235;-94
2022/02/11 01:53:26;;;;;;;16.40;2.57;;;4.00;99.90;;;;;;5209211;22;20146;-92
2022/02/11 02:24:06;;;;;;;15.33;3.20;;;4.70;99.90;;;;;;5201453;22;20174;-93
2022/02/11 02:26:34;;;;;;;15.17;3.20;;;4.80;99.90;;;;;;5176962;22;20159;-92
2022/02/11 02:57:54;;;;;;;13.67;2.80;;;5.00;99.90;;;;;;5224475;22;20160;-93
2022/02/11 03:14:31;;;;;;;13.17;2.43;;;4.90;99.90;;;;;;5199975;22;20535;-92
2022/02/11 03:51:21;;;;;;;11.87;2.70;;;5.10;99.90;;;;;;5200667;22;20474;-93
2022/02/11 04:08:34;;;;;;;22.73;2.73;;;5.10;99.90;;;;;;5199846;22;20257;-93
2022/02/11 04:55:53;;;;;;;17.13;3.13;;;5.40;99.90;;;;;;5202493;22;20166;-93
2022/02/11 05:00:15;;;;;;;19.87;3.17;;;5.20;99.90;;;;;;5201140;22;20150;-93
2022/02/11 05:02:25;;;;;;;19.67;3.07;;;5.20;99.90;;;;;;5196468;22;20151;-94
2022/02/11 05:04:26;;;;;;;16.50;3.07;;;5.10;99.90;;;;;;5194682;22;20174;-93
2022/02/11 05:06:27;;;;;;;20.73;2.97;;;5.00;99.90;;;;;;5195056;22;20212;-93
2022/02/11 05:08:28;;;;;;;15.97;3.20;;;5.00;99.90;;;;;;5195041;22;20151;-94
2022/02/11 05:10:28;;;;;;;24.23;3.17;;;5.10;99.90;;;;;;5169086;23;20178;-93
2022/02/11 05:12:29;;;;;;;16.13;3.33;;;5.20;99.90;;;;;;5195355;22;20157;-92
2022/02/11 05:14:30;;;;;;;21.47;3.57;;;5.20;99.90;;;;;;5194289;22;20260;-94
2022/02/11 05:16:31;;;;;;;21.43;3.10;;;5.30;99.90;;;;;;5194047;22;20233;-93
2022/02/11 05:18:32;;;;;;;19.77;3.83;;;5.20;99.90;;;;;;5168616;23;20158;-94
2022/02/11 05:20:33;;;;;;;13.80;2.63;;;5.10;99.90;;;;;;5197690;22;20233;-93
2022/02/11 05:22:37;;;;;;;20.03;3.40;;;5.10;99.90;;;;;;5194404;22;20155;-93
2022/02/11 05:24:37;;;;;;;19.60;3.80;;;5.20;99.90;;;;;;5169390;22;20608;-95
2022/02/11 05:26:38;;;;;;;20.10;2.40;;;5.10;99.90;;;;;;5194295;22;20151;-94
2022/02/11 05:28:39;;;;;;;13.03;3.13;;;5.30;99.90;;;;;;5169753;22;20231;-93
2022/02/11 05:30:41;;;;;;;12.83;3.17;;;5.50;99.90;;;;;;5194540;22;20477;-93
2022/02/11 05:32:42;;;;;;;20.87;3.43;;;5.30;99.90;;;;;;5169351;22;20194;-93
2022/02/11 05:34:43;;;;;;;24.70;3.67;;;5.40;99.90;;;;;;5220307;22;20177;-94
2022/02/11 05:36:45;;;;;;;17.77;3.10;;;5.40;99.90;;;;;;5170018;23;20700;-96
2022/02/11 05:38:45;;;;;;;14.73;2.90;;;5.30;99.90;;;;;;5169577;22;20189;-94
2022/02/11 05:40:46;;;;;;;17.93;2.73;;;5.20;99.90;;;;;;5195016;22;20154;-93
2022/02/11 05:42:47;;;;;;;16.33;3.30;;;5.20;99.90;;;;;;5194566;22;20189;-94
2022/02/11 05:44:48;;;;;;;13.47;2.70;;;5.10;99.90;;;;;;5195460;22;20150;-95
2022/02/11 05:46:49;;;;;;;18.23;3.17;;;5.20;99.90;;;;;;5170092;23;20155;-93
2022/02/11 05:48:50;;;;;;;16.47;2.97;;;5.10;99.90;;;;;;5194098;22;20245;-92
2022/02/11 05:50:51;;;;;;;16.93;3.10;;;5.20;99.90;;;;;;5168880;23;20174;-94
2022/02/11 05:52:51;;;;;;;18.60;2.90;;;5.10;99.90;;;;;;5194353;22;20161;-94
2022/02/11 05:54:52;;;;;;;17.33;2.90;;;5.30;99.90;;;;;;5195237;22;20145;-93
2022/02/11 05:56:53;;;;;;;16.43;2.60;;;5.30;99.90;;;;;;5194281;22;20196;-93
2022/02/11 05:58:54;;;;;;;22.27;2.77;;;5.30;99.90;;;;;;5169532;22;20147;-93
2022/02/11 06:00:55;;;;;;;12.67;2.83;;;5.30;99.90;;;;;;5194062;22;20247;-93
2022/02/11 06:02:56;;;;;;;29.60;3.60;;;5.20;99.90;;;;;;5169033;22;20231;-93
2022/02/11 06:04:57;;;;;;;17.07;2.93;;;5.30;99.90;;;;;;5168974;23;20155;-94
2022/02/11 06:06:59;;;;;;;19.83;2.83;;;5.30;99.90;;;;;;5195083;22;20303;-93
2022/02/11 06:09:00;;;;;;;19.30;2.70;;;5.20;99.90;;;;;;5194465;22;20150;-93
2022/02/11 06:11:01;;;;;;;22.03;3.07;;;5.20;99.90;;;;;;5194188;22;20146;-93
2022/02/11 06:13:02;;;;;;;13.43;2.67;;;5.20;99.90;;;;;;5194216;22;20521;-93
2022/02/11 06:15:03;;;;;;;19.73;2.97;;;5.20;99.90;;;;;;5194395;22;20477;-93
2022/02/11 06:17:05;;;;;;;19.43;2.73;;;5.10;99.90;;;;;;5169196;22;20195;-94
2022/02/11 06:19:05;;;;;;;16.03;3.03;;;5.20;99.90;;;;;;5170152;22;20152;-93
2022/02/11 06:21:06;;;;;;;25.90;3.13;;;5.20;99.90;;;;;;5194646;22;20667;-93
2022/02/11 06:23:07;;;;;;;18.63;3.23;;;5.40;99.90;;;;;;5170227;22;20163;-93
2022/02/11 06:25:08;;;;;;;14.80;2.70;;;5.50;99.90;;;;;;5203396;22;20126;-95
2022/02/11 06:27:09;;;;;;;19.70;3.30;;;5.50;99.90;;;;;;5183360;22;20143;-93
2022/02/11 06:29:11;;;;;;;22.37;3.50;;;5.60;99.90;;;;;;5210091;22;20213;-93
2022/02/11 06:31:13;;;;;;;22.93;3.33;;;5.60;99.90;;;;;;5187815;22;20210;-93
2022/02/11 06:33:14;;;;;;;23.33;3.40;;;5.60;99.90;;;;;;5188331;22;20178;-93
2022/02/11 06:35:14;;;;;;;18.70;3.20;;;5.70;99.90;;;;;;5210686;22;20147;-93
2022/02/11 06:37:15;;;;;;;15.33;2.90;;;5.60;99.90;;;;;;5185905;22;20247;-94
2022/02/11 06:39:16;;;;;;;17.63;3.70;;;5.60;99.90;;;;;;5213596;22;20154;-94
2022/02/11 06:41:17;;;;;;;24.90;3.77;;;5.50;99.90;;;;;;5183281;22;20142;-92
2022/02/11 11:51:58;;;;;;;17.47;1.87;;;8.40;99.90;;;;;;5161961;22;20289;-94
2022/02/11 11:59:24;;;;;;;13.97;2.03;;;7.90;99.90;;;;;;5164138;22;20202;-94
2022/02/11 12:01:29;;;;;;;20.40;2.63;;;8.10;99.90;;;;;;5138918;23;20147;-94
2022/02/11 12:27:38;;;;;;;18.57;2.17;;;8.30;99.90;;;;;;5149394;23;20136;-94
2022/02/11 12:30:06;;;;;;;12.60;2.03;;;8.80;99.90;;;;;;5124877;23;20256;-96
2022/02/11 12:32:39;;;;;;;11.70;1.80;;;8.80;99.90;;;;;;5130423;23;20187;-94
2022/02/11 12:35:13;;;;;;;19.27;2.50;;;9.00;99.90;;;;;;5123933;23;20148;-94
2022/02/11 12:37:14;;;;;;;23.25;1.98;;;8.80;99.90;;;;;;5101493;23;20252;-94
2022/02/11 12:39:22;;;;;;;10.90;2.00;;;8.80;99.90;;;;;;5120666;23;20534;-93
2022/02/11 12:41:40;;;;;;;15.87;2.00;;;8.50;99.90;;;;;;5126767;23;20152;-94
2022/02/11 12:43:57;;;;;;;16.10;2.00;;;8.20;99.90;;;;;;5094652;23;20176;-95
2022/02/11 12:46:19;;;;;;;20.93;2.23;;;8.00;99.90;;;;;;5124264;23;20157;-95
2022/02/11 12:48:46;;;;;;;9.93;1.63;;;8.30;99.90;;;;;;5136118;23;20219;-96
2022/02/11 12:54:24;;;;;;;;;;;;;;;;;;;;;
2022/02/11 12:57:26;;;;;;;14.40;1.50;;;8.50;99.90;;;;;;5102726;23;20234;-95
2022/02/11 13:00:24;;;;;;;22.90;2.47;;;8.90;99.90;;;;;;5091525;23;20503;-94
2022/02/11 13:02:33;;;;;;;11.38;1.90;;;9.60;99.90;;;;;;5145837;23;20151;-93
2022/02/11 13:04:41;;;;;;;15.93;2.33;;;9.90;99.90;;;;;;5132543;23;20291;-94
2022/02/11 13:06:42;;;;;;;13.88;1.98;;;9.60;99.90;;;;;;5101749;23;20211;-95
2022/02/11 13:09:44;;;;;;;15.07;2.20;;;9.50;99.90;;;;;;5134718;23;20156;-95
2022/02/11 13:15:17;;;;;;;16.83;2.20;;;8.90;99.90;;;;;;5155988;23;20226;-95
2022/02/11 13:18:54;;;;;;;19.98;1.83;;;8.90;99.90;;;;;;5160259;23;20183;-95
2022/02/11 13:22:10;;;;;;;16.00;2.10;;;9.20;99.90;;;;;;5148448;23;20166;-95
2022/02/11 13:24:22;;;;;;;19.52;2.50;;;8.80;99.90;;;;;;5151031;23;20175;-93
2022/02/11 13:26:29;;;;;;;7.80;1.57;;;9.00;99.90;;;;;;5177054;23;20154;-95
2022/02/11 13:29:08;;;;;;;26.20;2.20;;;9.20;99.90;;;;;;5127270;23;20156;-94
2022/02/11 13:32:34;;;;;;;12.37;1.70;;;9.00;99.90;;;;;;5121381;23;20160;-95
2022/02/11 13:39:55;;;;;;;14.63;2.63;;;9.40;99.90;;;;;;5148233;22;20210;-95
2022/02/11 13:42:18;;;;;;;13.07;1.70;;;9.50;99.90;;;;;;5170653;23;20171;-96
2022/02/11 13:45:03;;;;;;;16.70;2.03;;;9.10;99.90;;;;;;5188492;22;20193;-95
2022/02/11 13:48:13;;;;;;;17.33;2.23;;;9.10;99.90;;;;;;5200835;22;20154;-93
2022/02/11 14:02:56;;;;;;;12.50;1.73;;;9.50;99.90;;;;;;5056959;23;20161;-94
2022/02/11 14:05:29;;;;;;;;;;;;;;;;;;;;;
2022/02/11 14:08:14;;;;;;;20.53;2.07;;;8.70;99.90;;;;;;5156744;23;20159;-96
2022/02/11 14:11:06;;;;;;;16.03;2.40;;;8.80;99.90;;;;;;5080495;23;20240;-95
2022/02/11 14:13:34;;;;;;;15.88;2.10;;;9.20;99.90;;;;;;5102564;23;20235;-95
2022/02/11 14:19:27;;;;;;;;;;;;;;;;;;;;;
2022/02/11 14:25:04;;;;;;;17.20;1.80;;;9.70;99.90;;;;;;5074468;23;20153;-94
2022/02/11 14:27:37;;;;;;;;;;;;;;;;;;;;;
2022/02/11 14:34:02;;;;;;;15.13;2.33;;;8.90;99.90;;;;;;5049426;23;20180;-95
2022/02/11 14:37:03;;;;;;;16.52;1.63;;;8.90;99.90;;;;;;5082822;23;20304;-95
2022/02/11 14:43:19;;;;;;;16.03;2.13;;;8.80;99.90;;;;;;5085085;23;20183;-95
2022/02/11 15:47:54;;;;;;;18.20;2.20;;;9.00;99.90;;;;;;5118615;22;21279;-93
2022/02/11 15:49:57;;;;;;;10.70;2.03;;;8.90;99.90;;;;;;5142636;23;20598;-92
2022/02/11 15:51:58;;;;;;;23.23;2.23;;;8.80;99.90;;;;;;5117617;23;20742;-94
2022/02/11 15:53:59;;;;;;;18.43;2.53;;;8.80;99.90;;;;;;5183264;22;20166;-94
2022/02/11 15:55:59;;;;;;;9.53;2.03;;;8.70;99.90;;;;;;5166895;23;20246;-93
2022/02/11 15:58:00;;;;;;;21.13;2.30;;;8.60;99.90;;;;;;5192492;22;20531;-93
2022/02/11 16:00:02;;;;;;;16.93;2.50;;;8.60;99.90;;;;;;5142040;23;20484;-94
2022/02/11 16:02:11;;;;;;;15.53;2.97;;;8.60;99.90;;;;;;5167533;23;20147;-94
2022/02/11 16:04:12;;;;;;;19.67;2.43;;;8.50;99.90;;;;;;5141821;23;20724;-93
2022/02/11 16:06:12;;;;;;;14.97;2.00;;;8.70;99.90;;;;;;5167424;23;20185;-94
2022/02/11 16:08:13;;;;;;;14.20;2.20;;;8.60;99.90;;;;;;5142378;23;20156;-93
2022/02/11 16:10:14;;;;;;;15.23;1.87;;;8.50;99.90;;;;;;5142508;23;20211;-95
2022/02/11 16:12:15;;;;;;;13.77;2.13;;;8.60;99.90;;;;;;5143903;23;20471;-95
2022/02/11 16:14:16;;;;;;;13.47;2.10;;;8.70;99.90;;;;;;5193778;22;20170;-93
2022/02/11 16:16:17;;;;;;;19.43;2.57;;;8.50;99.90;;;;;;5169123;23;20314;-94
2022/02/11 16:18:23;;;;;;;28.73;2.97;;;8.70;99.90;;;;;;5168972;23;20154;-94
2022/02/11 16:20:23;;;;;;;18.80;2.77;;;8.50;99.90;;;;;;5143759;23;20152;-95
2022/02/11 16:22:26;;;;;;;24.57;3.40;;;8.60;99.90;;;;;;5194196;22;20173;-95
2022/02/11 16:24:27;;;;;;;23.30;3.17;;;8.40;99.90;;;;;;5168119;22;20198;-95
2022/02/11 16:26:27;;;;;;;17.73;2.47;;;8.00;99.90;;;;;;5143594;23;20151;-93
2022/02/11 16:28:28;;;;;;;19.00;2.80;;;8.10;99.90;;;;;;5143629;23;20159;-95
2022/02/11 16:30:29;;;;;;;25.93;2.67;;;8.60;99.90;;;;;;5168762;23;20162;-94
2022/02/11 16:32:30;;;;;;;19.93;2.90;;;9.10;99.90;;;;;;5143609;23;20199;-91
2022/02/11 16:34:34;;;;;;;19.30;3.40;;;9.20;99.90;;;;;;5168682;22;20643;-94
2022/02/11 16:36:39;;;;;;;16.33;2.57;;;9.00;99.90;;;;;;5144294;23;20183;-94
2022/02/11 16:38:44;;;;;;;21.10;2.70;;;8.80;99.90;;;;;;5169008;23;20644;-94
2022/02/11 16:40:44;;;;;;;18.10;2.40;;;8.30;99.90;;;;;;5168782;23;20143;-93
2022/02/11 16:42:46;;;;;;;17.20;2.87;;;7.80;99.90;;;;;;5169202;22;20170;-95
2022/02/11 16:44:47;;;;;;;25.93;3.43;;;7.30;99.90;;;;;;5144170;23;20171;-95
2022/02/11 16:46:48;;;;;;;22.90;2.80;;;7.10;99.90;;;;;;5171463;23;20155;-94
2022/02/11 16:48:48;;;;;;;23.90;3.00;;;7.00;99.90;;;;;;5154301;23;20618;-94
2022/02/11 16:50:49;;;;;;;26.37;3.07;;;6.90;99.90;;;;;;5150848;23;20175;-93
2022/02/11 16:57:20;;;;;;;14.60;2.10;;;6.70;99.90;;;;;;5192664;22;20244;-94
2022/02/11 16:59:23;;;;;;;24.70;2.60;;;6.60;99.90;;;;;;5194510;22;20204;-92
2022/02/11 17:01:24;;;;;;;15.53;2.37;;;6.60;99.90;;;;;;5169534;22;20648;-96
2022/02/11 17:03:25;;;;;;;21.63;2.40;;;6.60;99.90;;;;;;5166154;23;20607;-92
2022/02/11 17:05:27;;;;;;;17.03;2.57;;;6.70;99.90;;;;;;5168911;23;20512;-94
2022/02/11 17:07:28;;;;;;;16.07;2.37;;;6.60;99.90;;;;;;5144336;23;20533;-94
2022/02/11 17:09:29;;;;;;;19.23;2.53;;;6.60;99.90;;;;;;5144071;23;20151;-94
2022/02/11 17:11:31;;;;;;;16.03;2.33;;;6.60;99.90;;;;;;5169126;22;20174;-93
2022/02/11 17:13:31;;;;;;;16.80;2.07;;;6.60;99.90;;;;;;5144171;23;20268;-94
2022/02/11 17:15:33;;;;;;;19.20;2.00;;;6.60;99.90;;;;;;5169037;23;20158;-93
2022/02/11 17:17:34;;;;;;;18.60;2.40;;;6.50;99.90;;;;;;5169344;22;20213;-93
2022/02/11 17:19:34;;;;;;;15.30;2.10;;;6.50;99.90;;;;;;5169049;23;20159;-95
2022/02/11 17:21:35;;;;;;;21.90;2.70;;;6.50;99.90;;;;;;5144087;23;20152;-94
2022/02/11 17:23:36;;;;;;;24.53;2.60;;;6.40;99.90;;;;;;5169125;23;20174;-95
2022/02/11 17:25:37;;;;;;;20.97;2.53;;;6.30;99.90;;;;;;5169162;23;20155;-94
2022/02/11 17:27:38;;;;;;;19.27;2.57;;;6.20;99.90;;;;;;5169887;23;20151;-93
2022/02/11 17:29:39;;;;;;;20.40;2.30;;;6.10;99.90;;;;;;5194376;22;20229;-92
2022/02/11 17:31:41;;;;;;;13.67;2.47;;;6.10;99.90;;;;;;5169043;23;20154;-93
2022/02/11 17:33:41;;;;;;;18.97;2.80;;;6.20;99.90;;;;;;5143820;23;20258;-93
2022/02/11 17:35:42;;;;;;;20.20;3.37;;;6.20;99.90;;;;;;5168792;23;20159;-92
2022/02/11 17:37:43;;;;;;;18.13;3.10;;;6.30;99.90;;;;;;5168752;22;20186;-94
2022/02/11 17:39:46;;;;;;;15.27;2.23;;;6.40;99.90;;;;;;5169449;23;20459;-93
2022/02/11 17:41:47;;;;;;;23.47;2.40;;;6.50;99.90;;;;;;5194511;22;20153;-93
2022/02/11 17:43:48;;;;;;;22.53;2.50;;;6.50;99.90;;;;;;5168847;22;20609;-92
2022/02/11 17:45:49;;;;;;;35.13;3.00;;;6.60;99.90;;;;;;5143967;23;20269;-93
2022/02/11 17:47:49;;;;;;;14.17;2.53;;;6.60;99.90;;;;;;5168983;23;20238;-94
2022/02/11 17:49:50;;;;;;;21.33;3.13;;;6.40;99.90;;;;;;5143959;23;20148;-93
2022/02/11 17:51:51;;;;;;;19.90;3.13;;;6.30;99.90;;;;;;5169017;23;20158;-94
2022/02/11 17:53:53;;;;;;;30.10;3.83;;;6.30;99.90;;;;;;5143711;23;20176;-94
2022/02/11 17:55:54;;;;;;;23.63;4.53;;;6.20;99.90;;;;;;5143711;23;20147;-94
2022/02/11 17:57:54;;;;;;;24.33;6.27;;;6.20;99.90;;;;;;5168126;23;20192;-95
2022/02/11 17:59:55;;;;;;;30.43;6.30;;;6.40;99.90;;;;;;5168645;23;20155;-93
2022/02/11 18:01:56;;;;;;;30.50;8.87;;;6.40;99.90;;;;;;5168492;23;20147;-93
2022/02/11 18:03:57;;;;;;;39.90;10.90;;;6.30;99.90;;;;;;5143413;23;20174;-92
2022/02/11 18:05:58;;;;;;;37.77;7.83;;;6.40;99.90;;;;;;5168642;23;20150;-95
2022/02/11 18:07:59;;;;;;;31.37;9.20;;;6.30;99.90;;;;;;5143940;23;20148;-94
2022/02/11 18:10:00;;;;;;;45.77;11.23;;;6.30;99.90;;;;;;5169300;23;20154;-94
